createdAt,value
2022-08-10T00:01:54.238Z,101823.69
2022-08-10T00:04:23.016Z,101818.28
2022-08-10T00:06:53.928Z,101819.16
2022-08-10T00:09:21.241Z,101816.47
2022-08-10T00:11:47.767Z,101818.22
2022-08-10T00:14:14.367Z,101825.31
2022-08-10T00:16:40.922Z,101825.28
2022-08-10T00:19:07.469Z,101834.19
2022-08-10T00:21:33.975Z,101831.47
2022-08-10T00:24:00.848Z,101834.13
2022-08-10T00:27:50.066Z,101826.97
2022-08-10T00:29:14.006Z,101831.41
2022-08-10T00:31:58.833Z,101823.31
2022-08-10T00:34:31.230Z,101828.66
2022-08-10T00:36:59.126Z,101826.84
2022-08-10T00:39:27.008Z,101821.47
2022-08-10T00:42:06.363Z,101822.31
2022-08-10T00:44:45.823Z,101820.47
2022-08-10T00:47:22.652Z,101812.47
2022-08-10T00:50:01.035Z,101810.59
2022-08-10T00:52:30.889Z,101811.44
2022-08-10T00:54:58.486Z,101801.63
2022-08-10T00:57:25.756Z,101801.59
2022-08-10T00:59:58.207Z,101800.69
2022-08-10T01:02:27.364Z,101798.00
2022-08-10T01:04:59.276Z,101792.59
2022-08-10T01:07:41.129Z,101787.22
2022-08-10T01:10:34.231Z,101782.72
2022-08-10T01:13:25.652Z,101796.06
2022-08-10T01:16:01.600Z,101791.53
2022-08-10T01:18:52.568Z,101793.25
2022-08-10T01:21:56.861Z,101792.31
2022-08-10T01:24:35.903Z,101794.91
2022-08-10T01:27:19.139Z,101796.63
2022-08-10T01:30:07.595Z,101789.47
2022-08-10T01:33:08.093Z,101793.88
2022-08-10T01:35:41.057Z,101792.94
2022-08-10T01:38:18.651Z,101786.66
2022-08-10T01:40:52.263Z,101780.38
2022-08-10T01:43:20.468Z,101786.56
2022-08-10T01:45:55.905Z,101789.16
2022-08-10T01:48:33.674Z,101783.78
2022-08-10T01:51:07.394Z,101791.78
2022-08-10T01:53:47.168Z,101779.25
2022-08-10T01:56:16.425Z,101781.00
2022-08-10T01:58:46.121Z,101781.81
2022-08-10T02:01:17.257Z,101785.34
2022-08-10T02:04:01.300Z,101786.19
2022-08-10T02:06:36.991Z,101784.34
2022-08-10T02:09:06.478Z,101786.13
2022-08-10T02:12:06.582Z,101786.97
2022-08-10T02:14:25.654Z,101794.97
2022-08-10T02:17:03.728Z,101786.03
2022-08-10T02:19:33.191Z,101792.22
2022-08-10T02:22:35.081Z,101790.44
2022-08-10T02:24:48.453Z,101794.84
2022-08-10T02:27:16.046Z,101793.00
2022-08-10T02:29:44.448Z,101791.22
2022-08-10T02:32:23.793Z,101792.06
2022-08-10T02:35:08.004Z,101791.13
2022-08-10T02:37:38.963Z,101788.44
2022-08-10T02:40:06.182Z,101783.94
2022-08-10T02:45:19.720Z,101791.91
2022-08-10T02:45:54.825Z,101790.97
2022-08-10T02:48:24.682Z,101795.38
2022-08-10T02:50:58.608Z,101799.78
2022-08-10T02:53:55.500Z,101805.91
2022-08-10T02:56:32.877Z,101803.22
2022-08-10T02:59:04.279Z,101803.16
2022-08-10T03:01:33.961Z,101804.00
2022-08-10T03:04:10.717Z,101799.47
2022-08-10T03:06:43.642Z,101809.22
2022-08-10T03:09:15.112Z,101809.19
2022-08-10T03:12:35.807Z,101802.03
2022-08-10T03:14:32.768Z,101804.66
2022-08-10T03:17:01.550Z,101804.59
2022-08-10T03:20:33.546Z,101806.38
2022-08-10T03:22:17.685Z,101805.44
2022-08-10T03:24:45.570Z,101806.25
2022-08-10T03:27:14.413Z,101801.75
2022-08-10T03:30:29.972Z,101793.75
2022-08-10T03:32:28.380Z,101800.81
2022-08-10T03:34:55.655Z,101793.72
2022-08-10T03:37:22.224Z,101793.69
2022-08-10T03:39:51.202Z,101793.59
2022-08-10T03:42:20.227Z,101791.81
2022-08-10T03:44:50.609Z,101784.66
2022-08-10T03:47:19.258Z,101789.97
2022-08-10T03:49:48.356Z,101788.13
2022-08-10T03:52:17.083Z,101788.09
2022-08-10T03:54:44.376Z,101798.72
2022-08-10T03:57:11.580Z,101797.81
2022-08-10T03:59:38.658Z,101796.94
2022-08-10T04:02:44.273Z,101795.16
2022-08-10T04:04:53.222Z,101795.13
2022-08-10T04:07:19.881Z,101787.13
2022-08-10T04:09:54.414Z,101788.00
2022-08-10T04:12:22.898Z,101786.19
2022-08-10T04:14:52.409Z,101791.50
2022-08-10T04:18:01.257Z,101791.50
2022-08-10T04:20:19.428Z,101792.41
2022-08-10T04:22:50.949Z,101799.50
2022-08-10T04:25:18.272Z,101804.81
2022-08-10T04:27:45.675Z,101801.25
2022-08-10T04:30:12.822Z,101803.09
2022-08-10T04:32:41.180Z,101798.69
2022-08-10T04:35:10.767Z,101803.13
2022-08-10T04:37:47.132Z,101800.53
2022-08-10T04:40:28.638Z,101800.63
2022-08-10T04:43:02.394Z,101798.88
2022-08-10T04:45:49.283Z,101809.56
2022-08-10T04:48:40.210Z,101810.50
2022-08-10T04:51:05.000Z,101819.44
2022-08-10T04:53:32.392Z,101816.88
2022-08-10T04:55:59.127Z,101818.69
2022-08-10T04:58:25.672Z,101822.34
2022-08-10T05:00:52.243Z,101823.28
2022-08-10T05:03:18.962Z,101825.16
2022-08-10T05:05:46.154Z,101826.13
2022-08-10T05:08:15.208Z,101831.53
2022-08-10T05:10:42.078Z,101838.78
2022-08-10T05:13:08.866Z,101837.06
2022-08-10T05:15:35.413Z,101842.47
2022-08-10T05:18:04.729Z,101841.72
2022-08-10T05:20:36.822Z,101848.94
2022-08-10T05:23:03.606Z,101852.59
2022-08-10T05:25:32.856Z,101849.13
2022-08-10T05:28:03.100Z,101838.56
2022-08-10T05:30:32.291Z,101845.78
2022-08-10T05:33:02.576Z,101841.47
2022-08-10T05:35:56.976Z,101854.91
2022-08-10T05:38:22.874Z,101847.00
2022-08-10T05:40:49.801Z,101837.34
2022-08-10T05:43:19.210Z,101835.63
2022-08-10T05:46:17.101Z,101837.53
2022-08-10T05:48:54.022Z,101843.91
2022-08-10T05:51:22.491Z,101841.38
2022-08-10T05:54:01.006Z,101833.47
2022-08-10T05:56:55.714Z,101837.16
2022-08-10T06:00:34.143Z,101842.63
2022-08-10T06:02:32.050Z,101841.88
2022-08-10T06:05:08.627Z,101838.44
2022-08-10T06:07:39.152Z,101845.63
2022-08-10T06:10:10.315Z,101847.50
2022-08-10T06:12:53.965Z,101853.81
2022-08-10T06:15:51.548Z,101850.31
2022-08-10T06:18:09.682Z,101844.16
2022-08-10T06:20:37.645Z,101848.72
2022-08-10T06:23:04.572Z,101853.22
2022-08-10T06:26:11.180Z,101853.28
2022-08-10T06:28:20.839Z,101852.47
2022-08-10T06:30:49.293Z,101849.81
2022-08-10T06:33:18.704Z,101856.13
2022-08-10T06:35:48.468Z,101857.06
2022-08-10T06:38:16.827Z,101857.97
2022-08-10T06:40:48.335Z,101852.66
2022-08-10T06:43:18.690Z,101850.00
2022-08-10T06:46:07.488Z,101851.78
2022-08-10T06:48:46.917Z,101855.41
2022-08-10T06:51:15.790Z,101852.72
2022-08-10T06:53:53.321Z,101850.03
2022-08-10T06:56:38.046Z,101854.50
2022-08-10T06:59:21.810Z,101845.56
2022-08-10T07:02:10.786Z,101841.09
2022-08-10T07:04:48.242Z,101853.59
2022-08-10T07:07:20.373Z,101845.53
2022-08-10T07:09:49.239Z,101845.53
2022-08-10T07:12:19.768Z,101846.41
2022-08-10T07:14:47.817Z,101855.38
2022-08-10T07:17:19.640Z,101854.44
2022-08-10T07:19:52.525Z,101852.66
2022-08-10T07:23:01.358Z,101850.81
2022-08-10T07:25:19.462Z,101850.81
2022-08-10T07:27:58.654Z,101848.97
2022-08-10T07:30:29.024Z,101850.75
2022-08-10T07:32:56.495Z,101851.63
2022-08-10T07:35:26.174Z,101851.56
2022-08-10T07:37:54.455Z,101855.16
2022-08-10T07:40:22.318Z,101853.31
2022-08-10T07:42:53.797Z,101853.28
2022-08-10T07:45:20.552Z,101846.97
2022-08-10T07:48:06.623Z,101850.53
2022-08-10T07:50:36.297Z,101846.00
2022-08-10T07:53:04.641Z,101857.59
2022-08-10T07:56:07.260Z,101847.69
2022-08-10T07:58:22.277Z,101857.47
2022-08-10T08:00:52.150Z,101849.34
2022-08-10T08:03:24.719Z,101840.31
2022-08-10T08:05:57.895Z,101848.28
2022-08-10T08:08:32.071Z,101842.84
2022-08-10T08:10:59.640Z,101838.31
2022-08-10T08:13:26.856Z,101835.56
2022-08-10T08:16:20.611Z,101840.91
2022-08-10T08:18:58.392Z,101839.03
2022-08-10T08:24:10.072Z,101841.66
2022-08-10T08:24:32.351Z,101839.81
2022-08-10T08:27:02.224Z,101837.94
2022-08-10T08:29:30.624Z,101842.34
2022-08-10T08:32:02.115Z,101835.13
2022-08-10T08:34:32.046Z,101840.38
2022-08-10T08:37:01.091Z,101847.44
2022-08-10T08:39:28.470Z,101841.00
2022-08-10T08:42:24.077Z,101827.47
2022-08-10T08:45:05.067Z,101830.06
2022-08-10T08:48:04.216Z,101833.56
2022-08-10T08:50:56.648Z,101825.34
2022-08-10T08:56:28.296Z,101826.91
2022-08-10T08:59:19.565Z,101825.03
2022-08-10T09:02:18.801Z,101821.34
2022-08-10T09:05:19.430Z,101814.97
2022-08-10T09:08:19.978Z,101816.66
2022-08-10T09:11:19.125Z,101814.69
2022-08-10T09:14:00.412Z,101811.91
2022-08-10T09:16:42.735Z,101803.72
2022-08-10T09:19:38.466Z,101804.56
2022-08-10T09:22:44.916Z,101807.19
2022-08-10T09:25:21.539Z,101802.63
2022-08-10T09:27:56.660Z,101807.91
2022-08-10T09:30:31.709Z,101813.22
2022-08-10T09:36:22.450Z,101803.25
2022-08-10T09:36:32.511Z,101804.94
2022-08-10T09:40:55.857Z,101804.75
2022-08-10T09:42:23.012Z,101797.50
2022-08-10T09:45:17.932Z,101798.28
2022-08-10T09:48:03.290Z,101790.94
2022-08-10T09:51:28.459Z,101792.69
2022-08-10T09:54:00.359Z,101788.00
2022-08-10T09:56:51.923Z,101786.09
2022-08-10T10:00:01.859Z,101784.19
2022-08-10T10:02:44.210Z,101783.88
2022-08-10T10:05:51.997Z,101780.09
2022-08-10T10:08:29.964Z,101786.25
2022-08-10T10:11:02.451Z,101784.38
2022-08-10T10:14:16.382Z,101784.25
2022-08-10T10:17:03.426Z,101776.75
2022-08-10T10:19:40.848Z,101780.13
2022-08-10T10:22:51.524Z,101774.59
2022-08-10T10:25:52.634Z,101775.41
2022-08-10T10:28:43.836Z,101778.06
2022-08-10T10:31:25.775Z,101769.81
2022-08-10T10:34:13.371Z,101763.31
2022-08-10T10:36:45.855Z,101758.69
2022-08-10T10:39:14.118Z,101759.56
2022-08-10T10:42:04.960Z,101766.72
2022-08-10T10:44:49.475Z,101759.34
2022-08-10T10:47:46.502Z,101762.81
2022-08-10T10:50:19.606Z,101752.00
2022-08-10T10:53:14.184Z,101748.63
2022-08-10T10:56:14.690Z,101755.75
2022-08-10T10:58:51.606Z,101754.78
2022-08-10T11:01:21.153Z,101752.75
2022-08-10T11:04:13.837Z,101746.28
2022-08-10T11:06:50.358Z,101741.44
2022-08-10T11:10:09.278Z,101732.91
2022-08-10T11:12:37.121Z,101734.25
2022-08-10T11:15:16.456Z,101733.03
2022-08-10T11:17:50.376Z,101733.47
2022-08-10T11:20:33.122Z,101728.53
2022-08-10T11:23:09.559Z,101731.97
2022-08-10T11:25:44.851Z,101733.88
2022-08-10T11:28:31.062Z,101723.06
2022-08-10T11:31:15.218Z,101730.16
2022-08-10T11:34:48.674Z,101728.53
2022-08-10T11:37:05.518Z,101728.75
2022-08-10T11:39:49.472Z,101729.75
2022-08-10T11:42:43.871Z,101726.19
2022-08-10T11:45:16.626Z,101726.19
2022-08-10T11:48:02.049Z,101731.69
2022-08-10T11:50:33.054Z,101723.63
2022-08-10T11:53:21.013Z,101720.34
2022-08-10T11:55:54.950Z,101716.03
2022-08-10T11:58:43.151Z,101710.66
2022-08-10T12:01:13.416Z,101711.41
2022-08-10T12:03:42.267Z,101723.06
2022-08-10T12:06:13.573Z,101710.63
2022-08-10T12:10:04.847Z,101710.84
2022-08-10T12:11:34.152Z,101709.97
2022-08-10T12:14:20.267Z,101695.44
2022-08-10T12:16:51.432Z,101698.88
2022-08-10T12:19:30.369Z,101705.03
2022-08-10T12:22:28.084Z,101697.56
2022-08-10T12:25:05.105Z,101696.69
2022-08-10T12:27:48.999Z,101691.31
2022-08-10T12:30:17.715Z,101685.84
2022-08-10T12:32:53.754Z,101690.47
2022-08-10T12:35:51.612Z,101683.28
2022-08-10T12:38:58.085Z,101675.03
2022-08-10T12:41:43.591Z,101669.44
2022-08-10T12:44:50.123Z,101669.31
2022-08-10T12:47:27.754Z,101671.84
2022-08-10T12:50:33.192Z,101660.78
2022-08-10T12:53:17.450Z,101658.75
2022-08-10T12:55:45.222Z,101662.28
2022-08-10T12:58:57.238Z,101649.47
2022-08-10T13:01:16.018Z,101649.28
2022-08-10T13:04:21.396Z,101645.63
2022-08-10T13:06:35.292Z,101644.72
2022-08-10T13:09:13.268Z,101638.44
2022-08-10T13:12:36.016Z,101641.19
2022-08-10T13:15:25.276Z,101630.34
2022-08-10T13:18:18.250Z,101621.13
2022-08-10T13:20:51.414Z,101619.25
2022-08-10T13:23:22.350Z,101617.25
2022-08-10T13:25:51.953Z,101614.47
2022-08-10T13:28:39.549Z,101614.31
2022-08-10T13:31:11.573Z,101616.03
2022-08-10T13:34:39.868Z,101596.09
2022-08-10T13:36:39.310Z,101596.09
2022-08-10T13:39:08.345Z,101596.09
2022-08-10T13:41:40.971Z,101600.56
2022-08-10T13:44:11.240Z,101585.19
2022-08-10T13:46:42.091Z,101594.03
2022-08-10T13:49:11.057Z,101592.97
2022-08-10T13:51:57.274Z,101595.63
2022-08-10T13:54:36.381Z,101578.38
2022-08-10T13:57:04.668Z,101582.66
2022-08-10T14:00:32.955Z,101576.31
2022-08-10T14:02:45.078Z,101583.41
2022-08-10T14:05:12.867Z,101580.69
2022-08-10T14:07:53.605Z,101578.81
2022-08-10T14:11:08.323Z,101580.56
2022-08-10T14:13:22.007Z,101573.28
2022-08-10T14:15:49.994Z,101574.94
2022-08-10T14:18:18.808Z,101562.22
2022-08-10T14:20:47.423Z,101568.44
2022-08-10T14:23:15.378Z,101564.69
2022-08-10T14:25:52.564Z,101567.31
2022-08-10T14:28:37.042Z,101569.06
2022-08-10T14:31:08.538Z,101565.38
2022-08-10T14:33:37.137Z,101561.63
2022-08-10T14:36:19.384Z,101557.88
2022-08-10T14:38:53.941Z,101556.91
2022-08-10T14:42:03.224Z,101553.28
2022-08-10T14:44:20.361Z,101561.34
2022-08-10T14:46:53.208Z,101549.59
2022-08-10T14:49:26.213Z,101543.31
2022-08-10T14:52:02.506Z,101551.19
2022-08-10T14:54:32.312Z,101535.81
2022-08-10T14:57:11.067Z,101541.94
2022-08-10T15:00:20.978Z,101539.03
2022-08-10T15:02:38.663Z,101544.47
2022-08-10T15:05:10.496Z,101544.34
2022-08-10T15:07:38.505Z,101540.69
2022-08-10T15:10:09.130Z,101540.56
2022-08-10T15:12:38.598Z,101536.03
2022-08-10T15:15:09.603Z,101528.75
2022-08-10T15:17:40.917Z,101534.84
2022-08-10T15:20:21.022Z,101532.00
2022-08-10T15:22:51.089Z,101536.31
2022-08-10T15:25:25.559Z,101523.44
2022-08-10T15:28:08.186Z,101527.63
2022-08-10T15:30:43.822Z,101516.25
2022-08-10T15:34:04.651Z,101521.66
2022-08-10T15:37:02.491Z,101513.69
2022-08-10T15:40:24.951Z,101514.28
2022-08-10T15:42:35.214Z,101522.56
2022-08-10T15:45:02.441Z,101509.69
2022-08-10T15:47:45.991Z,101513.69
2022-08-10T15:50:25.127Z,101521.84
2022-08-10T15:53:08.122Z,101514.22
2022-08-10T15:55:48.530Z,101514.28
2022-08-10T15:58:42.718Z,101519.06
2022-08-10T16:02:13.854Z,101531.44
2022-08-10T16:04:31.751Z,101519.41
2022-08-10T16:07:03.072Z,101530.63
2022-08-10T16:10:24.091Z,101528.53
2022-08-10T16:12:32.408Z,101522.81
2022-08-10T16:15:08.195Z,101528.41
2022-08-10T16:17:55.462Z,101529.28
2022-08-10T16:20:55.433Z,101519.06
2022-08-10T16:23:36.428Z,101534.91
2022-08-10T16:26:14.667Z,101523.91
2022-08-10T16:28:48.525Z,101531.41
2022-08-10T16:31:20.857Z,101533.34
2022-08-10T16:33:55.178Z,101533.63
2022-08-10T16:36:29.204Z,101518.94
2022-08-10T16:38:57.025Z,101523.97
2022-08-10T16:42:03.418Z,101520.28
2022-08-10T16:44:17.470Z,101514.75
2022-08-10T16:46:45.366Z,101510.69
2022-08-10T16:49:18.587Z,101517.53
2022-08-10T16:51:50.289Z,101513.97
2022-08-10T16:54:26.337Z,101514.19
2022-08-10T16:57:01.184Z,101512.22
2022-08-10T16:59:36.990Z,101512.34
2022-08-10T17:02:05.596Z,101516.03
2022-08-10T17:04:34.544Z,101511.50
2022-08-10T17:07:08.230Z,101510.59
2022-08-10T17:09:38.719Z,101512.34
2022-08-10T17:12:11.492Z,101515.03
2022-08-10T17:14:41.105Z,101506.69
2022-08-10T17:17:13.908Z,101513.31
2022-08-10T17:19:45.302Z,101499.22
2022-08-10T17:22:25.573Z,101503.91
2022-08-10T17:25:10.768Z,101498.31
2022-08-10T17:28:04.450Z,101498.53
2022-08-10T17:30:34.079Z,101497.84
2022-08-10T17:33:11.720Z,101501.63
2022-08-10T17:35:41.075Z,101504.47
2022-08-10T17:38:10.719Z,101505.56
2022-08-10T17:40:49.817Z,101499.19
2022-08-10T17:44:00.674Z,101489.19
2022-08-10T17:46:13.956Z,101483.28
2022-08-10T17:48:41.814Z,101484.69
2022-08-10T17:51:15.133Z,101483.84
2022-08-10T17:53:49.471Z,101481.81
2022-08-10T17:56:17.231Z,101483.47
2022-08-10T17:58:54.123Z,101487.31
2022-08-10T18:01:40.999Z,101477.44
2022-08-10T18:04:15.056Z,101479.53
2022-08-10T18:06:42.895Z,101475.41
2022-08-10T18:09:17.521Z,101478.22
2022-08-10T18:11:50.829Z,101483.50
2022-08-10T18:14:21.458Z,101480.25
2022-08-10T18:16:53.584Z,101484.94
2022-08-10T18:19:22.106Z,101480.38
2022-08-10T18:21:50.538Z,101477.66
2022-08-10T18:24:20.181Z,101475.75
2022-08-10T18:26:51.009Z,101476.31
2022-08-10T18:29:24.541Z,101470.47
2022-08-10T18:31:57.667Z,101473.63
2022-08-10T18:34:25.636Z,101474.88
2022-08-10T18:36:53.471Z,101476.88
2022-08-10T18:39:24.123Z,101478.88
2022-08-10T18:42:00.684Z,101481.81
2022-08-10T18:44:36.539Z,101480.25
2022-08-10T18:47:09.977Z,101471.31
2022-08-10T18:49:36.465Z,101478.53
2022-08-10T18:52:08.591Z,101476.69
2022-08-10T18:54:47.013Z,101482.03
2022-08-10T18:57:30.968Z,101481.09
2022-08-10T19:00:08.636Z,101471.09
2022-08-10T19:03:01.064Z,101472.88
2022-08-10T19:05:36.538Z,101473.50
2022-08-10T19:08:30.095Z,101482.34
2022-08-10T19:11:28.993Z,101489.38
2022-08-10T19:14:06.801Z,101491.69
2022-08-10T19:17:01.494Z,101495.00
2022-08-10T19:19:42.070Z,101495.59
2022-08-10T19:22:14.630Z,101506.06
2022-08-10T19:24:57.246Z,101501.06
2022-08-10T19:27:50.162Z,101498.84
2022-08-10T19:30:18.886Z,101502.94
2022-08-10T19:32:51.729Z,101500.75
2022-08-10T19:36:03.538Z,101497.56
2022-08-10T19:39:04.279Z,101496.31
2022-08-10T19:41:54.374Z,101486.78
2022-08-10T19:44:52.757Z,101493.38
2022-08-10T19:47:48.078Z,101486.50
2022-08-10T19:50:30.933Z,101492.19
2022-08-10T19:53:25.072Z,101494.25
2022-08-10T19:56:32.553Z,101499.94
2022-08-10T19:59:01.189Z,101501.09
2022-08-10T20:01:55.886Z,101504.91
2022-08-10T20:04:22.379Z,101502.41
2022-08-10T20:07:10.094Z,101504.38
2022-08-10T20:10:00.296Z,101506.38
2022-08-10T20:12:40.051Z,101511.09
2022-08-10T20:15:21.194Z,101519.38
2022-08-10T20:18:04.324Z,101520.41
2022-08-10T20:20:37.354Z,101518.78
2022-08-10T20:23:19.113Z,101521.66
2022-08-10T20:25:56.358Z,101520.00
2022-08-10T20:28:38.004Z,101512.94
2022-08-10T20:31:20.164Z,101523.84
2022-08-10T20:34:00.682Z,101522.16
2022-08-10T20:36:33.543Z,101520.47
2022-08-10T20:39:14.311Z,101516.09
2022-08-10T20:41:48.219Z,101518.91
2022-08-10T20:44:35.564Z,101517.28
2022-08-10T20:47:33.933Z,101521.03
2022-08-10T20:50:42.245Z,101518.41
2022-08-10T20:53:12.364Z,101517.66
2022-08-10T20:55:54.946Z,101516.88
2022-08-10T20:58:37.799Z,101517.88
2022-08-10T21:01:18.244Z,101513.56
2022-08-10T21:04:39.293Z,101514.56
2022-08-10T21:08:01.551Z,101509.28
2022-08-10T21:10:37.442Z,101500.41
2022-08-10T21:13:22.513Z,101502.34
2022-08-10T21:15:51.937Z,101499.72
2022-08-10T21:18:44.074Z,101504.28
2022-08-10T21:21:41.048Z,101502.59
2022-08-10T21:24:17.013Z,101491.00
2022-08-10T21:26:55.608Z,101501.84
2022-08-10T21:29:37.806Z,101493.91
2022-08-10T21:32:40.135Z,101506.50
2022-08-10T21:35:20.334Z,101507.44
2022-08-10T21:38:34.545Z,101507.53
2022-08-10T21:41:58.123Z,101504.94
2022-08-10T21:45:07.611Z,101513.09
2022-08-10T21:48:30.175Z,101510.50
2022-08-10T21:51:24.307Z,101510.56
2022-08-10T21:55:03.214Z,101505.28
2022-08-10T21:58:07.654Z,101498.19
2022-08-10T22:01:00.684Z,101495.59
2022-08-10T22:03:47.095Z,101498.34
2022-08-10T22:06:34.376Z,101504.66
2022-08-10T22:09:24.666Z,101501.16
2022-08-10T22:12:24.694Z,101502.09
2022-08-10T22:15:23.632Z,101489.63
2022-08-10T22:18:31.367Z,101497.69
2022-08-10T22:21:28.958Z,101498.66
2022-08-10T22:25:00.393Z,101496.00
2022-08-10T22:27:59.276Z,101502.34
2022-08-10T22:31:26.830Z,101501.47
2022-08-10T22:34:01.151Z,101497.03
2022-08-10T22:37:17.294Z,101497.09
2022-08-10T22:40:19.414Z,101493.53
2022-08-10T22:43:11.187Z,101493.56
2022-08-10T22:46:18.764Z,101495.41
2022-08-10T22:48:59.671Z,101491.00
2022-08-10T22:51:36.414Z,101490.09
2022-08-10T22:54:34.227Z,101491.91
2022-08-10T22:57:21.370Z,101494.63
2022-08-10T22:59:49.639Z,101491.06
2022-08-10T23:02:36.100Z,101485.72
2022-08-10T23:05:12.285Z,101486.59
2022-08-10T23:07:51.504Z,101491.06
2022-08-10T23:10:21.570Z,101484.84
2022-08-10T23:13:29.455Z,101492.00
2022-08-10T23:16:28.867Z,101485.75
2022-08-10T23:19:09.398Z,101482.19
2022-08-10T23:22:05.743Z,101488.47
2022-08-10T23:24:41.736Z,101483.13
2022-08-10T23:27:37.882Z,101484.94
2022-08-10T23:30:09.311Z,101481.34
2022-08-10T23:32:42.473Z,101481.38
2022-08-10T23:36:32.264Z,101480.47
2022-08-10T23:38:03.407Z,101476.03
2022-08-10T23:40:31.180Z,101480.53
2022-08-10T23:42:59.332Z,101476.94
2022-08-10T23:45:28.862Z,101476.06
2022-08-10T23:48:19.816Z,101474.25
2022-08-10T23:50:53.369Z,101480.50
2022-08-10T23:53:30.111Z,101484.94
2022-08-10T23:56:03.037Z,101475.13
2022-08-10T23:58:37.572Z,101483.16
